• Join FlightAware (Why Join?)
  • Login
  • US Flag 
01:43AM EDT


 

Airport Tracker/Info


-or-


 

Live Flight TrackerFlight Track Log ✈ AWE1938 ✈ 20-Apr-2013 ✈ KRSW - KPHL

Flight Track Log - Related Links

Times and Time Zones

All times are in EDT time to prevent confusion due to time zone crossing. See the AWE1938 flight status page for this flight to view local times or setup timezone preferences in your user account.

Time Position Orientation Groundspeed Altitude Reporting Facility
EDT Latitude Longitude Course Direction KTS MPH feet Rate Location/Type
07:53PM 26.6589 -81.7308 344° North 210 242 5,300  Level Miami Center
07:54PM 26.9931 -81.7333 North  Level FlightAware Approximate
07:54PM 26.7361 -81.7317 359° North 240 276 7,800  Level Miami Center
07:55PM 27.1030 -81.7682 336° Northwest  Level FlightAware Approximate
07:55PM 26.8175 -81.7350 358° North 269 310 10,400  Level Miami Center
07:56PM 27.2136 -81.8034 347° North  Level FlightAware Approximate
07:56PM 26.9133 -81.7414 357° North 309 356 12,300  Level Miami Center
07:57PM 27.3262 -81.8315 347° North  Level FlightAware Approximate
07:57PM 27.0153 -81.7478 357° North 342 394 14,900  Level Miami Center
07:58PM 27.4241 -81.8691 344° North  Level FlightAware Approximate
07:58PM 27.1167 -81.7778 345° North 367 422 17,200  Level Miami Center
07:59PM 27.2247 -81.7311 21° North 364 419 19,300 1,920 Climbing Miami Center
08:00PM 27.3011 -81.6269 50° Northeast 371 427 21,100 1,800 Climbing Miami Center
08:01PM 27.3711 -81.5292 51° Northeast 420 483 23,000 1,680 Climbing Miami Center
08:02PM 27.4478 -81.4200 52° Northeast 446 513 24,500 1,440 Climbing Miami Center
08:03PM 27.5306 -81.3061 51° Northeast 458 527 25,900 1,200 Climbing Miami Center
08:04PM 27.6133 -81.1922 51° Northeast 458 527 27,000 1,140 Climbing Miami Center
08:05PM 27.6983 -81.0714 52° Northeast 468 539 28,200 1,200 Climbing Miami Center
08:06PM 27.7872 -80.9525 50° Northeast 481 554 29,500 1,140 Climbing Miami Center
08:07PM 27.8742 -80.8289 51° Northeast 486 559 30,500 1,260 Climbing Miami Center
08:08PM 27.9592 -80.7050 52° Northeast 491 565 32,100 1,680 Climbing Miami Center
08:09PM 28.0500 -80.5786 51° Northeast 501 577 33,900 1,620 Climbing Miami Center
08:10PM 28.1431 -80.4475 51° Northeast 493 567 35,400 900 Climbing Miami Center
08:11PM 28.2297 -80.3231 52° Northeast 493 567 35,800 720 Climbing Miami Center
08:12PM 28.3183 -80.1961 52° Northeast 503 579 36,900 600 Climbing Miami Center
08:13PM 28.3981 -80.0828 51° Northeast 503 579 37,000  Climbing Miami Center
08:14PM 28.4864 -79.9603 51° Northeast 503 579 37,000  Level Miami Center
08:15PM 28.5811 -79.8161 53° Northeast 511 588 37,000  Level Miami Center
08:16PM 28.6672 -79.6908 52° Northeast 511 588 37,000 -60 Level Miami Center
08:17PM 28.7531 -79.5628 53° Northeast 506 582 36,900 -60 Descending Miami Center
08:18PM 28.8511 -79.4514 45° Northeast 506 582 36,900  Level Miami Center
08:19PM 28.9833 -79.4022 18° North 484 557 37,000  Climbing Miami Center
08:20PM 29.1178 -79.3556 17° North 488 562 37,000  Level Miami Center
08:21PM 29.2478 -79.3133 16° North 488 562 37,000  Level Miami Center
08:22PM 29.3822 -79.2686 16° North 488 562 37,000 -60 Level Miami Center
08:23PM 29.5206 -79.2311 13° North 508 585 36,900  Descending Miami Center
08:24PM 29.6506 -79.1814 18° North 497 572 37,000  Climbing Miami Center
08:25PM 29.7847 -79.1317 18° North 497 572 37,000  Level Miami Center
08:27PM 30.1097 -79.0244 16° North 490 564 37,000  Level Jacksonville Center
08:28PM 30.2544 -78.9756 16° North 495 570 37,000  Level Jacksonville Center
08:29PM 30.3886 -78.9314 16° North 489 563 37,000  Level Jacksonville Center
08:30PM 30.5208 -78.8850 17° North 487 560 37,000  Level Jacksonville Center
08:31PM 30.6531 -78.8383 17° North 487 560 37,000  Level Jacksonville Center
08:32PM 30.7894 -78.7964 15° North 492 566 37,000  Level Jacksonville Center
08:33PM 30.9236 -78.7494 17° North 497 572 37,000  Level Jacksonville Center
08:34PM 31.0619 -78.7044 16° North 502 578 37,000  Level Jacksonville Center
08:35PM 31.2003 -78.6569 16° North 507 583 37,000  Level Jacksonville Center
08:36PM 31.3364 -78.6072 17° North 507 583 37,000  Level Jacksonville Center
08:37PM 31.4725 -78.5619 16° North 507 583 37,000  Level Jacksonville Center
08:38PM 31.6086 -78.5164 16° North 513 590 37,000  Level Jacksonville Center
08:39PM 31.7489 -78.4658 17° North 508 585 37,000  Level Jacksonville Center
08:40PM 31.8850 -78.4178 17° North 507 583 37,000 -60 Level Jacksonville Center
08:41PM 32.0231 -78.3694 17° North 507 583 36,900 -60 Descending Jacksonville Center
08:42PM 32.1614 -78.3208 17° North 507 583 36,900  Level Jacksonville Center
08:43PM 32.2972 -78.2747 16° North 507 583 37,000  Climbing Jacksonville Center
08:44PM 32.4372 -78.2208 18° North 512 589 37,000  Level Jacksonville Center
08:45PM 32.5775 -78.1742 16° North 512 589 37,000  Level Jacksonville Center
08:46PM 32.7133 -78.1253 17° North 512 589 37,000  Level Jacksonville Center
08:47PM 32.8533 -78.0733 17° North 512 589 37,000  Level Jacksonville Center
08:50PM 33.1386 -77.9719 17° North 505 581 37,000  Level Washington Center
08:51PM 33.2814 -77.9239 16° North 512 589 37,000  Level Washington Center
08:52PM 33.4219 -77.8731 17° North 517 595 37,000  Level Washington Center
08:53PM 33.5647 -77.8222 17° North 522 601 37,000  Level Washington Center
08:54PM 33.7056 -77.7686 18° North 527 606 37,000  Level Washington Center
08:55PM 33.8483 -77.7147 17° North 527 606 37,000  Level Washington Center
08:56PM 34.0058 -77.6586 16° North 527 606 37,000  Level Washington Center
08:57PM 34.1508 -77.6069 16° North 533 613 37,000  Level Washington Center
08:58PM 34.2956 -77.5528 17° North 538 619 37,000  Level Washington Center
08:59PM 34.4361 -77.5033 16° North 533 613 37,000  Level Washington Center
09:00PM 34.5789 -77.4486 18° North 533 613 37,000  Level Washington Center
09:01PM 34.7156 -77.3733 24° Northeast 533 613 37,000 -120 Level Washington Center
09:02PM 34.8567 -77.2956 24° Northeast 533 613 36,800 -600 Descending Washington Center
09:03PM 34.9911 -77.2222 24° Northeast 538 619 35,800 -960 Descending Washington Center
09:04PM 35.1256 -77.1461 25° Northeast 538 619 34,900 -960 Descending Washington Center
09:05PM 35.2475 -77.0800 24° Northeast 533 613 33,900 -960 Descending Washington Center
09:06PM 35.3842 -77.0061 24° Northeast 528 608 33,000 -480 Descending Washington Center
09:07PM 35.5206 -76.9292 25° Northeast 528 608 33,000  Level Washington Center
09:08PM 35.6550 -76.8522 25° Northeast 528 608 33,000  Level Washington Center
09:09PM 35.7933 -76.7750 24° Northeast 528 608 33,000  Level Washington Center
09:10PM 35.9339 -76.7003 23° Northeast 528 608 33,000  Level Washington Center
09:11PM 36.0722 -76.6225 24° Northeast 533 613 33,000 -480 Level Washington Center
09:12PM 36.2086 -76.5469 24° Northeast 533 613 32,100 -960 Descending Washington Center
09:13PM 36.3572 -76.4611 25° Northeast 533 613 31,100 -720 Descending Washington Center
09:14PM 36.4978 -76.3800 25° Northeast 538 619 30,700 -720 Descending Washington Center
09:15PM 36.6381 -76.3011 24° Northeast 543 625 29,700 -1,080 Descending Washington Center
09:16PM 36.7719 -76.2194 26° Northeast 543 625 28,600 -1,020 Descending Washington Center
09:17PM 36.9058 -76.1425 25° Northeast 536 617 27,700 -1,020 Descending Washington Center
09:18PM 37.0439 -76.0681 23° Northeast 530 610 26,600 -1,020 Descending Washington Center
09:19PM 37.1692 -75.9958 25° Northeast 512 589 25,700 -840 Descending Washington Center
09:20PM 37.2906 -75.9233 25° Northeast 494 568 25,000 -600 Descending Washington Center
09:21PM 37.4136 -75.8506 25° Northeast 482 555 24,600 -660 Descending Washington Center
09:22PM 37.5306 -75.7831 25° Northeast 476 548 23,700 -960 Descending Washington Center
09:23PM 37.6475 -75.7150 25° Northeast 464 534 22,700 -1,020 Descending Washington Center
09:24PM 37.7603 -75.6497 25° Northeast 454 522 21,700 -1,020 Descending Washington Center
09:25PM 37.8686 -75.5811 27° Northeast 441 507 20,700 -1,020 Descending Washington Center
09:26PM 37.9792 -75.5181 24° Northeast 436 502 19,700 -1,020 Descending Washington Center
09:27PM 38.0875 -75.4519 26° Northeast 431 496 18,700 -900 Descending Washington Center
09:28PM 38.1981 -75.3803 27° Northeast 431 496 18,000 -840 Descending Washington Center
09:29PM 38.3061 -75.3114 27° Northeast 431 496 17,100 -900 Descending Washington Center
09:30PM 38.4019 -75.2447 29° Northeast 431 496 16,200 -960 Descending Washington Center
09:31PM 38.5186 -75.2203 North 419 482 15,200 -660 Descending Washington Center
09:32PM 38.6269 -75.1958 10° North 407 468 14,900 -300 Descending Washington Center
09:33PM 38.7372 -75.1631 13° North 402 463 14,700 -600 Descending Washington Center
09:34PM 38.8478 -75.1411 North 402 463 13,700 -1,020 Descending Washington Center
09:35PM 38.9539 -75.1139 11° North 392 451 12,700 -1,020 Descending Washington Center
09:36PM 39.0603 -75.0864 11° North 392 451 11,700 -1,020 Descending Washington Center
09:37PM 39.2206 -75.0464 11° North 315 362 10,000 -1,020 Descending FAA TRACON SMA TRACON (SMA)
09:38PM 39.2525 -75.0383 11° North 303 349 9,600 -1,080 Descending FAA TRACON SMA TRACON (SMA)
09:38PM 39.2778 -75.0319 11° North 299 344 9,300 -780 Descending FAA TRACON SMA TRACON (SMA)
09:38PM 39.3008 -75.0267 10° North 284 327 9,100 -480 Descending FAA TRACON SMA TRACON (SMA)
09:39PM 39.3294 -75.0197 11° North 274 315 9,000 -180 Descending FAA TRACON SMA TRACON (SMA)
09:39PM 39.3519 -75.0142 11° North 270 311 9,000  Level FAA TRACON SMA TRACON (SMA)
09:39PM 39.3800 -75.0072 11° North 268 308 9,000  Level FAA TRACON SMA TRACON (SMA)
09:40PM 39.4031 -75.0011 12° North 270 311 9,000  Level FAA TRACON SMA TRACON (SMA)
09:40PM 39.4261 -74.9950 12° North 272 313 9,000  Level FAA TRACON SMA TRACON (SMA)
09:40PM 39.4481 -74.9900 10° North 271 312 9,000 -300 Level FAA TRACON SMA TRACON (SMA)
09:41PM 39.4761 -74.9875 North 262 302 8,800 -900 Descending FAA TRACON SMA TRACON (SMA)
09:41PM 39.4983 -74.9914 352° North 254 292 8,400 -1,500 Descending FAA TRACON SMA TRACON (SMA)
09:41PM 39.5250 -74.9953 354° North 249 287 7,800 -1,680 Descending FAA TRACON SMA TRACON (SMA)
09:42PM 39.5461 -74.9986 353° North 247 284 7,300 -1,800 Descending FAA TRACON SMA TRACON (SMA)
09:42PM 39.5669 -75.0014 354° North 247 284 6,600 -1,800 Descending FAA TRACON SMA TRACON (SMA)
09:42PM 39.5939 -75.0056 353° North 250 288 6,100 -900 Descending FAA TRACON SMA TRACON (SMA)
09:43PM 39.6150 -75.0092 352° North 249 287 6,000 -180 Descending FAA TRACON SMA TRACON (SMA)
09:43PM 39.6358 -75.0122 354° North 250 288 6,000  Level FAA TRACON SMA TRACON (SMA)
09:43PM 39.6575 -75.0156 353° North 250 288 6,000 -480 Level FAA TRACON SMA TRACON (SMA)
09:44PM 39.6839 -75.0192 354° North 249 287 5,700 -1,320 Descending FAA TRACON SMA TRACON (SMA)
09:44PM 39.7042 -75.0225 353° North 246 283 5,100 -1,980 Descending FAA TRACON SMA TRACON (SMA)
09:44PM 39.7300 -75.0272 352° North 241 277 4,400 -1,980 Descending FAA TRACON SMA TRACON (SMA)
09:45PM 39.7500 -75.0306 353° North 238 274 3,800 -1,980 Descending FAA TRACON SMA TRACON (SMA)
09:45PM 39.7694 -75.0375 345° North 228 262 3,100 -2,280 Descending FAA TRACON SMA TRACON (SMA)
09:45PM 39.7928 -75.0475 342° North 235 270 2,300 -1,680 Descending FAA TRACON SMA TRACON (SMA)
09:46PM 39.8103 -75.0544 343° North 212 244 2,000 -480 Descending FAA TRACON SMA TRACON (SMA)
09:46PM 39.8267 -75.0608 343° North 196 226 2,000 -300 Level FAA TRACON SMA TRACON (SMA)
09:46PM 39.8439 -75.0681 342° North 156 180 1,800 -300 Descending FAA TRACON SMA TRACON (SMA)
09:47PM 39.8567 -75.0728 344° North 158 182 1,800  Level FAA TRACON SMA TRACON (SMA)
09:47PM 39.8686 -75.0772 344° North 154 177 1,800  Level FAA TRACON SMA TRACON (SMA)
09:47PM 39.8825 -75.0867 332° Northwest 151 174 1,800 -300 Level FAA TRACON SMA TRACON (SMA)
09:48PM 39.8867 -75.1028 289° West 151 174 1,600 -480 Descending FAA TRACON SMA TRACON (SMA)
09:48PM 39.8906 -75.1208 286° West 134 154 1,500 -480 Descending FAA TRACON SMA TRACON (SMA)
09:48PM 39.8903 -75.1328 268° West 125 144 1,300 -480 Descending FAA TRACON SMA TRACON (SMA)
09:49PM 39.8903 -75.1461 270° West 114 131 1,200 -300 Descending FAA TRACON SMA TRACON (SMA)